Flight Track Log - Related Links

Times and Time Zones

All times are in EST time to prevent confusion due to time zone crossing. See the N5205J flight status page for this flight to view local times or setup timezone preferences in your user account.

Time Position Orientation Groundspeed Altitude Reporting Facility
EST Latitude Longitude Course Direction KTS MPH feet Rate Location/Type
Thu 11:42:03 PM 43.0000 -78.9833 117° Southeast 281 323 4,400  Level Buffalo TRACON
Thu 11:47:00 PM 42.9642 -78.8861 117° Southeast  Level FlightAware Approximate
Thu 11:54:00 PM 42.7955 -78.5127 124° Southeast  Level Estimated
Thu 11:55:00 PM 42.7717 -78.4592 121° Southeast  Level FlightAware Approximate
Thu 11:56:00 PM 42.7479 -78.4057 121° Southeast  Level FlightAware Approximate
Thu 11:57:00 PM 42.7236 -78.3526 125° Southeast  Level Estimated
Thu 11:58:00 PM 42.6978 -78.3010 124° Southeast  Level FlightAware Approximate
Thu 11:59:00 PM 42.6719 -78.2494 124° Southeast  Level FlightAware Approximate
Fri 12:00:00 AM 42.6460 -78.1978 124° Southeast  Level FlightAware Approximate
Fri 12:01:00 AM 42.6200 -78.1463 124° Southeast  Level FlightAware Approximate
Fri 12:02:00 AM 42.5941 -78.0948 124° Southeast  Level FlightAware Approximate
Fri 12:03:00 AM 42.5681 -78.0434 124° Southeast  Level FlightAware Approximate
Fri 12:04:00 AM 42.5421 -77.9920 124° Southeast  Level FlightAware Approximate
Fri 12:05:00 AM 42.5161 -77.9406 124° Southeast  Level FlightAware Approximate
Fri 12:06:00 AM 42.4901 -77.8893 125° Southeast  Level FlightAware Approximate
Fri 12:07:00 AM 42.4640 -77.8381 125° Southeast  Level FlightAware Approximate
Fri 12:08:00 AM 42.4379 -77.7868 125° Southeast  Level FlightAware Approximate
Fri 12:09:00 AM 42.4136 -77.7340 127° Southeast  Level Estimated
Fri 12:10:00 AM 42.3865 -77.6839 126° Southeast  Level FlightAware Approximate
Fri 12:11:00 AM 42.3593 -77.6337 126° Southeast  Level FlightAware Approximate
Fri 12:12:00 AM 42.3322 -77.5836 126° Southeast  Level FlightAware Approximate
Fri 12:13:00 AM 42.3050 -77.5336 126° Southeast  Level FlightAware Approximate
Fri 12:14:00 AM 42.2777 -77.4836 126° Southeast  Level FlightAware Approximate
Fri 12:15:00 AM 42.2536 -77.4308 127° Southeast  Level Estimated
Fri 12:16:00 AM 42.2257 -77.3815 127° Southeast  Level FlightAware Approximate
Fri 12:17:00 AM 42.1978 -77.3323 127° Southeast  Level FlightAware Approximate
Fri 12:18:00 AM 42.1699 -77.2830 127° Southeast  Level FlightAware Approximate
Fri 12:19:00 AM 42.1420 -77.2338 127° Southeast  Level FlightAware Approximate
Fri 12:20:00 AM 42.1141 -77.1847 127° Southeast  Level FlightAware Approximate
Fri 12:21:00 AM 42.0861 -77.1356 127° Southeast  Level FlightAware Approximate
Fri 12:22:00 AM 42.0581 -77.0865 128° Southeast  Level FlightAware Approximate
Fri 12:23:00 AM 42.0301 -77.0375 128° Southeast  Level FlightAware Approximate
Fri 12:24:00 AM 42.0021 -76.9886 128° Southeast  Level FlightAware Approximate
Fri 12:25:00 AM 41.9740 -76.9397 128° Southeast  Level FlightAware Approximate
Fri 12:26:00 AM 41.9459 -76.8908 128° Southeast  Level FlightAware Approximate
Fri 12:27:00 AM 41.9224 -76.8378 126° Southeast  Level Estimated
Fri 12:28:00 AM 41.8950 -76.7883 127° Southeast  Level FlightAware Approximate
Fri 12:29:00 AM 41.8675 -76.7388 127° Southeast  Level FlightAware Approximate
Fri 12:30:00 AM 41.8401 -76.6893 127° Southeast  Level FlightAware Approximate
Fri 12:31:00 AM 41.8126 -76.6400 127° Southeast  Level FlightAware Approximate
Fri 12:32:00 AM 41.7851 -76.5906 127° Southeast  Level FlightAware Approximate
Fri 12:33:00 AM 41.7576 -76.5413 127° Southeast  Level FlightAware Approximate
Fri 12:34:00 AM 41.7301 -76.4920 127° Southeast  Level FlightAware Approximate
Fri 12:35:00 AM 41.7025 -76.4428 127° Southeast  Level FlightAware Approximate
Fri 12:36:00 AM 41.6750 -76.3936 127° Southeast  Level FlightAware Approximate
Fri 12:37:00 AM 41.6474 -76.3445 127° Southeast  Level FlightAware Approximate
Fri 12:38:00 AM 41.6246 -76.2911 129° Southeast  Level Estimated
Fri 12:39:00 AM 41.5958 -76.2433 129° Southeast  Level FlightAware Approximate
Fri 12:40:00 AM 41.5669 -76.1956 129° Southeast  Level FlightAware Approximate
Fri 12:41:00 AM 41.5380 -76.1479 129° Southeast  Level FlightAware Approximate
Fri 12:42:00 AM 41.5091 -76.1002 129° Southeast  Level FlightAware Approximate
Fri 12:43:00 AM 41.4870 -76.0464 126° Southeast  Level Estimated
Fri 12:44:00 AM 41.4582 -75.9987 129° Southeast  Level FlightAware Approximate
Fri 12:45:00 AM 41.4294 -75.9510 129° Southeast  Level FlightAware Approximate
Fri 12:46:00 AM 41.4006 -75.9034 129° Southeast  Level FlightAware Approximate
Fri 12:47:00 AM 41.3792 -75.8492 111° Southeast  Level Estimated
Fri 12:48:00 AM 41.3532 -75.7987 124° Southeast  Level FlightAware Approximate
Fri 12:49:00 AM 41.3320 -75.7445 114° Southeast  Level Estimated
Fri 12:50:00 AM 41.3110 -75.6901 117° Southeast  Level FlightAware Approximate
Fri 12:51:00 AM 41.2899 -75.6358 117° Southeast  Level FlightAware Approximate
Fri 12:52:00 AM 41.2688 -75.5816 117° Southeast  Level FlightAware Approximate
Fri 12:53:00 AM 41.2477 -75.5273 117° Southeast  Level FlightAware Approximate
Fri 12:54:00 AM 41.2265 -75.4731 117° Southeast  Level FlightAware Approximate
Fri 12:55:00 AM 41.2053 -75.4189 117° Southeast  Level FlightAware Approximate
Fri 12:56:00 AM 41.1841 -75.3648 117° Southeast  Level FlightAware Approximate
Fri 12:57:00 AM 41.1629 -75.3107 118° Southeast  Level FlightAware Approximate
Fri 12:58:00 AM 41.1413 -75.2568 131° Southeast  Level Estimated
Fri 12:59:00 AM 41.1198 -75.2030 106° East  Level Estimated
Fri 01:00:00 AM 41.1002 -75.1479 115° Southeast  Level FlightAware Approximate
Fri 01:01:00 AM 41.0784 -75.0942 180° South  Level Estimated
Fri 01:02:00 AM 41.0566 -75.0406 143° Southeast  Level Estimated
Fri 01:03:00 AM 41.0348 -74.9870 123° Southeast  Level Estimated
Fri 01:04:00 AM 41.0130 -74.9335 118° Southeast  Level Estimated
Fri 01:05:00 AM 40.9916 -74.8796 118° Southeast  Level FlightAware Approximate
Fri 01:06:00 AM 40.9702 -74.8258 118° Southeast  Level FlightAware Approximate
Fri 01:07:00 AM 40.9482 -74.7724 118° Southeast  Level Estimated
Fri 01:08:00 AM 40.9268 -74.7186 118° Southeast  Level FlightAware Approximate
Fri 01:09:00 AM 40.9046 -74.6654 128° Southeast  Level Estimated
Fri 01:10:00 AM 40.8809 -74.6134 121° Southeast  Level FlightAware Approximate
Fri 01:11:00 AM 40.8590 -74.5600 128° Southeast  Level Estimated
Fri 01:12:00 AM 40.8371 -74.5066 128° Southeast  Level Estimated
Fri 01:13:00 AM 40.8152 -74.4533 128° Southeast  Level Estimated
Fri 01:14:00 AM 40.7993 -74.4149 128° Southeast  Level Estimated
Fri 01:15:00 AM 40.7993 -74.4149 128° Southeast  Level Estimated
Fri 01:16:00 AM 40.7993 -74.4149 128° Southeast  Level Estimated
Fri 01:17:00 AM 40.7993 -74.4149 128° Southeast  Level Estimated
Fri 01:18:00 AM 40.7993 -74.4149 128° Southeast  Level Estimated
Fri 01:19:00 AM 40.7993 -74.4149 128° Southeast  Level Estimated
Fri 01:20:00 AM 40.7993 -74.4149 128° Southeast  Level Estimated
Fri 01:21:00 AM 40.7993 -74.4149 128° Southeast  Level Estimated
Fri 01:22:00 AM 40.7993 -74.4149 128° Southeast  Level Estimated

Login

Don't have an account? Register now (free) for customized features, flight alerts, and more!